sensor_id;sensor_type;location;lat;lon;timestamp;pressure;altitude;pressure_sealevel;temperature;humidity
57594;BME280;43423;46.510;6.686;2023-12-07T00:01:41;96629.34;;;3.00;90.52
57594;BME280;43423;46.510;6.686;2023-12-07T00:04:06;96622.19;;;2.90;91.31
57594;BME280;43423;46.510;6.686;2023-12-07T00:06:32;96631.03;;;2.94;91.14
57594;BME280;43423;46.510;6.686;2023-12-07T00:08:58;96635.00;;;2.90;90.21
57594;BME280;43423;46.510;6.686;2023-12-07T00:11:25;96640.59;;;2.83;90.99
57594;BME280;43423;46.510;6.686;2023-12-07T00:13:51;96636.28;;;2.85;91.41
57594;BME280;43423;46.510;6.686;2023-12-07T00:16:17;96646.78;;;2.83;91.23
57594;BME280;43423;46.510;6.686;2023-12-07T00:18:42;96644.50;;;2.82;90.48
57594;BME280;43423;46.510;6.686;2023-12-07T00:21:08;96640.31;;;2.61;91.84
57594;BME280;43423;46.510;6.686;2023-12-07T00:23:34;96643.41;;;2.79;91.53
57594;BME280;43423;46.510;6.686;2023-12-07T00:26:00;96644.59;;;2.78;91.76
57594;BME280;43423;46.510;6.686;2023-12-07T00:28:26;96648.56;;;2.73;91.69
57594;BME280;43423;46.510;6.686;2023-12-07T00:30:52;96648.19;;;2.55;91.45
57594;BME280;43423;46.510;6.686;2023-12-07T00:33:17;96650.47;;;2.57;90.83
57594;BME280;43423;46.510;6.686;2023-12-07T00:35:43;96653.53;;;2.59;89.89
57594;BME280;43423;46.510;6.686;2023-12-07T00:38:08;96647.06;;;2.52;90.05
57594;BME280;43423;46.510;6.686;2023-12-07T00:40:34;96649.78;;;2.52;89.71
57594;BME280;43423;46.510;6.686;2023-12-07T00:43:02;96652.78;;;2.58;88.74
57594;BME280;43423;46.510;6.686;2023-12-07T00:45:28;96659.06;;;2.55;88.95
57594;BME280;43423;46.510;6.686;2023-12-07T00:47:54;96663.00;;;2.50;89.09
57594;BME280;43423;46.510;6.686;2023-12-07T00:50:20;96658.34;;;2.51;89.58
57594;BME280;43423;46.510;6.686;2023-12-07T00:52:45;96656.91;;;2.46;90.98
57594;BME280;43423;46.510;6.686;2023-12-07T00:55:11;96661.63;;;2.42;91.71
57594;BME280;43423;46.510;6.686;2023-12-07T00:57:36;96667.91;;;2.39;91.95
57594;BME280;43423;46.510;6.686;2023-12-07T01:00:03;96663.31;;;2.36;92.23
57594;BME280;43423;46.510;6.686;2023-12-07T01:02:29;96661.28;;;2.40;91.93
57594;BME280;43423;46.510;6.686;2023-12-07T01:04:55;96659.25;;;2.44;92.24
57594;BME280;43423;46.510;6.686;2023-12-07T01:07:20;96663.53;;;2.45;92.09
57594;BME280;43423;46.510;6.686;2023-12-07T01:09:46;96670.09;;;2.44;92.54
57594;BME280;43423;46.510;6.686;2023-12-07T01:12:12;96672.69;;;2.51;91.88
57594;BME280;43423;46.510;6.686;2023-12-07T01:14:38;96683.75;;;2.41;91.96
57594;BME280;43423;46.510;6.686;2023-12-07T01:17:03;96683.47;;;2.35;93.21
57594;BME280;43423;46.510;6.686;2023-12-07T01:19:30;96683.63;;;2.48;92.03
57594;BME280;43423;46.510;6.686;2023-12-07T01:21:55;96682.25;;;2.40;90.76
57594;BME280;43423;46.510;6.686;2023-12-07T01:24:21;96683.34;;;2.42;91.38
57594;BME280;43423;46.510;6.686;2023-12-07T01:26:47;96677.91;;;2.42;91.30
57594;BME280;43423;46.510;6.686;2023-12-07T01:29:12;96682.91;;;2.44;91.27
57594;BME280;43423;46.510;6.686;2023-12-07T01:31:40;96680.97;;;2.44;91.09
57594;BME280;43423;46.510;6.686;2023-12-07T01:34:05;96691.81;;;2.44;90.47
57594;BME280;43423;46.510;6.686;2023-12-07T01:36:31;96685.72;;;2.40;90.68
57594;BME280;43423;46.510;6.686;2023-12-07T01:38:57;96692.00;;;2.37;90.58
57594;BME280;43423;46.510;6.686;2023-12-07T01:41:23;96696.63;;;2.37;90.21
57594;BME280;43423;46.510;6.686;2023-12-07T01:43:49;96697.41;;;2.37;91.06
57594;BME280;43423;46.510;6.686;2023-12-07T01:46:16;96700.06;;;2.41;90.31
57594;BME280;43423;46.510;6.686;2023-12-07T01:48:42;96704.22;;;2.45;90.33
57594;BME280;43423;46.510;6.686;2023-12-07T01:51:10;96708.91;;;2.45;90.28
57594;BME280;43423;46.510;6.686;2023-12-07T01:53:38;96711.25;;;2.43;90.29
57594;BME280;43423;46.510;6.686;2023-12-07T01:56:04;96708.09;;;2.44;90.18
57594;BME280;43423;46.510;6.686;2023-12-07T01:58:32;96710.47;;;2.42;89.84
57594;BME280;43423;46.510;6.686;2023-12-07T02:00:58;96705.13;;;2.39;89.70
57594;BME280;43423;46.510;6.686;2023-12-07T02:03:24;96698.22;;;2.34;90.77
57594;BME280;43423;46.510;6.686;2023-12-07T02:05:51;96706.88;;;2.49;89.16
57594;BME280;43423;46.510;6.686;2023-12-07T02:08:16;96693.09;;;2.40;90.21
57594;BME280;43423;46.510;6.686;2023-12-07T02:10:42;96700.34;;;2.46;89.22
57594;BME280;43423;46.510;6.686;2023-12-07T02:13:08;96698.81;;;2.45;88.89
57594;BME280;43423;46.510;6.686;2023-12-07T02:15:34;96695.59;;;2.31;88.84
57594;BME280;43423;46.510;6.686;2023-12-07T02:20:37;96698.13;;;2.21;88.10
57594;BME280;43423;46.510;6.686;2023-12-07T02:23:04;96698.94;;;2.18;89.06
57594;BME280;43423;46.510;6.686;2023-12-07T02:25:36;96688.84;;;1.99;89.56
57594;BME280;43423;46.510;6.686;2023-12-07T02:28:06;96693.38;;;2.06;89.80
57594;BME280;43423;46.510;6.686;2023-12-07T02:30:31;96696.78;;;2.10;89.52
57594;BME280;43423;46.510;6.686;2023-12-07T02:32:57;96705.63;;;2.14;89.68
57594;BME280;43423;46.510;6.686;2023-12-07T02:35:23;96696.97;;;2.19;89.54
57594;BME280;43423;46.510;6.686;2023-12-07T02:37:50;96709.78;;;2.18;89.62
57594;BME280;43423;46.510;6.686;2023-12-07T02:40:19;96705.19;;;2.15;89.41
57594;BME280;43423;46.510;6.686;2023-12-07T02:42:46;96694.59;;;2.21;89.45
57594;BME280;43423;46.510;6.686;2023-12-07T02:45:12;96697.06;;;2.15;89.77
57594;BME280;43423;46.510;6.686;2023-12-07T02:47:39;96677.03;;;2.09;89.77
57594;BME280;43423;46.510;6.686;2023-12-07T02:50:06;96687.88;;;2.09;90.20
57594;BME280;43423;46.510;6.686;2023-12-07T02:52:33;96686.00;;;2.06;89.85
57594;BME280;43423;46.510;6.686;2023-12-07T02:54:58;96691.22;;;2.17;89.49
57594;BME280;43423;46.510;6.686;2023-12-07T02:57:24;96691.34;;;2.10;89.60
57594;BME280;43423;46.510;6.686;2023-12-07T02:59:49;96695.53;;;2.14;88.37
57594;BME280;43423;46.510;6.686;2023-12-07T03:02:15;96693.00;;;2.04;87.76
57594;BME280;43423;46.510;6.686;2023-12-07T03:04:41;96689.59;;;2.00;88.10
57594;BME280;43423;46.510;6.686;2023-12-07T03:07:07;96686.72;;;1.87;88.74
57594;BME280;43423;46.510;6.686;2023-12-07T03:09:32;96692.09;;;1.90;87.91
57594;BME280;43423;46.510;6.686;2023-12-07T03:11:58;96692.91;;;1.87;88.07
57594;BME280;43423;46.510;6.686;2023-12-07T03:14:23;96694.44;;;1.88;87.15
57594;BME280;43423;46.510;6.686;2023-12-07T03:16:49;96693.41;;;1.82;87.18
57594;BME280;43423;46.510;6.686;2023-12-07T03:19:15;96694.66;;;1.78;86.53
57594;BME280;43423;46.510;6.686;2023-12-07T03:21:41;96688.88;;;1.76;85.86
57594;BME280;43423;46.510;6.686;2023-12-07T03:24:08;96685.94;;;1.66;87.02
57594;BME280;43423;46.510;6.686;2023-12-07T03:26:34;96683.16;;;1.70;86.92
57594;BME280;43423;46.510;6.686;2023-12-07T03:29:00;96687.69;;;1.77;87.04
57594;BME280;43423;46.510;6.686;2023-12-07T03:31:26;96695.06;;;1.76;87.03
57594;BME280;43423;46.510;6.686;2023-12-07T03:33:51;96694.34;;;1.72;86.55
57594;BME280;43423;46.510;6.686;2023-12-07T03:36:17;96692.19;;;1.63;86.93
57594;BME280;43423;46.510;6.686;2023-12-07T03:38:43;96698.78;;;1.62;88.08
57594;BME280;43423;46.510;6.686;2023-12-07T03:41:08;96680.09;;;1.68;87.78
57594;BME280;43423;46.510;6.686;2023-12-07T03:43:34;96674.16;;;1.53;88.30
57594;BME280;43423;46.510;6.686;2023-12-07T03:46:03;96668.75;;;1.53;87.51
57594;BME280;43423;46.510;6.686;2023-12-07T03:48:29;96679.03;;;1.62;86.29
57594;BME280;43423;46.510;6.686;2023-12-07T03:50:55;96669.94;;;1.72;86.82
57594;BME280;43423;46.510;6.686;2023-12-07T03:53:20;96666.72;;;1.57;85.86
57594;BME280;43423;46.510;6.686;2023-12-07T03:55:46;96661.84;;;1.49;87.14
57594;BME280;43423;46.510;6.686;2023-12-07T03:58:11;96662.91;;;1.55;87.57
57594;BME280;43423;46.510;6.686;2023-12-07T04:00:39;96675.28;;;1.56;87.63
57594;BME280;43423;46.510;6.686;2023-12-07T04:03:04;96666.78;;;1.54;87.36
57594;BME280;43423;46.510;6.686;2023-12-07T04:05:31;96667.13;;;1.56;87.22
57594;BME280;43423;46.510;6.686;2023-12-07T04:07:57;96660.31;;;1.48;85.71
57594;BME280;43423;46.510;6.686;2023-12-07T04:10:23;96659.44;;;1.54;85.59
57594;BME280;43423;46.510;6.686;2023-12-07T04:12:49;96671.34;;;1.60;85.11
57594;BME280;43423;46.510;6.686;2023-12-07T04:15:15;96682.34;;;1.50;84.61
57594;BME280;43423;46.510;6.686;2023-12-07T04:17:40;96696.59;;;1.54;84.91
57594;BME280;43423;46.510;6.686;2023-12-07T04:20:06;96700.31;;;1.63;84.73
57594;BME280;43423;46.510;6.686;2023-12-07T04:22:33;96697.13;;;1.68;84.51
57594;BME280;43423;46.510;6.686;2023-12-07T04:24:59;96696.59;;;1.77;83.85
57594;BME280;43423;46.510;6.686;2023-12-07T04:27:24;96687.63;;;1.80;83.69
57594;BME280;43423;46.510;6.686;2023-12-07T04:29:50;96692.00;;;1.74;84.21
57594;BME280;43423;46.510;6.686;2023-12-07T04:32:15;96696.13;;;1.82;83.76
57594;BME280;43423;46.510;6.686;2023-12-07T04:34:41;96691.84;;;1.81;84.61
57594;BME280;43423;46.510;6.686;2023-12-07T04:37:06;96688.75;;;1.83;84.18
57594;BME280;43423;46.510;6.686;2023-12-07T04:39:32;96686.72;;;1.87;84.45
57594;BME280;43423;46.510;6.686;2023-12-07T04:41:58;96687.63;;;1.80;83.50
57594;BME280;43423;46.510;6.686;2023-12-07T04:44:24;96686.16;;;1.76;83.40
57594;BME280;43423;46.510;6.686;2023-12-07T04:46:51;96688.25;;;1.45;84.71
57594;BME280;43423;46.510;6.686;2023-12-07T04:49:17;96688.41;;;1.34;85.46
57594;BME280;43423;46.510;6.686;2023-12-07T04:51:42;96693.81;;;1.34;86.78
57594;BME280;43423;46.510;6.686;2023-12-07T04:54:12;96697.66;;;1.36;86.76
57594;BME280;43423;46.510;6.686;2023-12-07T04:56:40;96692.91;;;1.44;85.17
57594;BME280;43423;46.510;6.686;2023-12-07T04:59:07;96695.13;;;1.49;84.54
57594;BME280;43423;46.510;6.686;2023-12-07T05:01:37;96685.53;;;1.21;86.59
57594;BME280;43423;46.510;6.686;2023-12-07T05:04:03;96685.72;;;1.07;87.19
57594;BME280;43423;46.510;6.686;2023-12-07T05:06:30;96689.88;;;0.88;86.61
57594;BME280;43423;46.510;6.686;2023-12-07T05:08:56;96691.00;;;0.91;86.90
57594;BME280;43423;46.510;6.686;2023-12-07T05:11:21;96698.28;;;0.94;87.28
57594;BME280;43423;46.510;6.686;2023-12-07T05:13:47;96697.44;;;1.00;86.83
57594;BME280;43423;46.510;6.686;2023-12-07T05:16:13;96683.44;;;1.05;85.52
57594;BME280;43423;46.510;6.686;2023-12-07T05:18:39;96686.16;;;1.05;86.40
57594;BME280;43423;46.510;6.686;2023-12-07T05:21:05;96684.78;;;1.17;85.38
57594;BME280;43423;46.510;6.686;2023-12-07T05:23:31;96680.16;;;1.18;85.03
57594;BME280;43423;46.510;6.686;2023-12-07T05:25:57;96678.47;;;1.27;84.76
57594;BME280;43423;46.510;6.686;2023-12-07T05:28:23;96677.22;;;1.32;84.07
57594;BME280;43423;46.510;6.686;2023-12-07T05:30:48;96679.34;;;1.44;84.53
57594;BME280;43423;46.510;6.686;2023-12-07T05:33:15;96676.69;;;1.40;83.72
57594;BME280;43423;46.510;6.686;2023-12-07T05:35:41;96688.13;;;1.52;83.53
57594;BME280;43423;46.510;6.686;2023-12-07T05:38:07;96693.47;;;1.55;81.95
57594;BME280;43423;46.510;6.686;2023-12-07T05:40:32;96695.06;;;1.53;82.76
57594;BME280;43423;46.510;6.686;2023-12-07T05:42:59;96693.13;;;1.53;80.20
57594;BME280;43423;46.510;6.686;2023-12-07T05:45:25;96679.28;;;1.48;81.09
57594;BME280;43423;46.510;6.686;2023-12-07T05:47:51;96679.78;;;1.43;81.75
57594;BME280;43423;46.510;6.686;2023-12-07T05:50:17;96669.75;;;1.39;82.14
57594;BME280;43423;46.510;6.686;2023-12-07T05:52:43;96675.13;;;1.43;82.33
57594;BME280;43423;46.510;6.686;2023-12-07T05:55:09;96682.88;;;1.41;82.95
57594;BME280;43423;46.510;6.686;2023-12-07T05:57:35;96680.66;;;1.36;82.54
57594;BME280;43423;46.510;6.686;2023-12-07T06:00:01;96685.88;;;1.47;82.64
57594;BME280;43423;46.510;6.686;2023-12-07T06:02:27;96680.13;;;1.45;82.58
57594;BME280;43423;46.510;6.686;2023-12-07T06:04:53;96678.97;;;1.42;81.51
57594;BME280;43423;46.510;6.686;2023-12-07T06:07:19;96673.41;;;1.29;82.64
57594;BME280;43423;46.510;6.686;2023-12-07T06:09:44;96679.22;;;1.28;83.25
57594;BME280;43423;46.510;6.686;2023-12-07T06:12:10;96676.22;;;1.46;76.61
57594;BME280;43423;46.510;6.686;2023-12-07T06:14:35;96677.28;;;1.52;78.60
57594;BME280;43423;46.510;6.686;2023-12-07T06:17:01;96681.44;;;1.33;80.35
57594;BME280;43423;46.510;6.686;2023-12-07T06:19:27;96693.16;;;1.26;82.02
57594;BME280;43423;46.510;6.686;2023-12-07T06:21:52;96692.34;;;1.29;81.79
57594;BME280;43423;46.510;6.686;2023-12-07T06:24:18;96698.34;;;1.40;80.31
57594;BME280;43423;46.510;6.686;2023-12-07T06:26:44;96686.88;;;1.33;82.45
57594;BME280;43423;46.510;6.686;2023-12-07T06:29:09;96692.13;;;1.20;82.88
57594;BME280;43423;46.510;6.686;2023-12-07T06:31:35;96692.81;;;1.24;82.09
57594;BME280;43423;46.510;6.686;2023-12-07T06:34:01;96693.31;;;1.19;81.73
57594;BME280;43423;46.510;6.686;2023-12-07T06:36:26;96689.34;;;1.24;80.65
57594;BME280;43423;46.510;6.686;2023-12-07T06:38:53;96690.75;;;1.32;80.70
57594;BME280;43423;46.510;6.686;2023-12-07T06:41:20;96682.84;;;1.18;80.30
57594;BME280;43423;46.510;6.686;2023-12-07T06:43:46;96680.03;;;1.25;81.12
57594;BME280;43423;46.510;6.686;2023-12-07T06:46:12;96677.56;;;1.34;80.11
57594;BME280;43423;46.510;6.686;2023-12-07T06:48:38;96694.72;;;1.27;80.70
57594;BME280;43423;46.510;6.686;2023-12-07T06:51:04;96683.28;;;1.16;81.31
57594;BME280;43423;46.510;6.686;2023-12-07T06:53:30;96690.84;;;1.01;81.79
57594;BME280;43423;46.510;6.686;2023-12-07T06:55:57;96686.19;;;1.02;82.77
57594;BME280;43423;46.510;6.686;2023-12-07T06:58:23;96705.03;;;1.09;83.00
57594;BME280;43423;46.510;6.686;2023-12-07T07:00:49;96705.88;;;1.06;82.93
57594;BME280;43423;46.510;6.686;2023-12-07T07:03:15;96704.34;;;1.05;83.95
57594;BME280;43423;46.510;6.686;2023-12-07T07:05:41;96702.81;;;1.04;84.58
57594;BME280;43423;46.510;6.686;2023-12-07T07:08:06;96713.53;;;1.11;84.40
57594;BME280;43423;46.510;6.686;2023-12-07T07:10:34;96717.28;;;1.17;84.38
57594;BME280;43423;46.510;6.686;2023-12-07T07:13:03;96716.81;;;0.99;84.10
57594;BME280;43423;46.510;6.686;2023-12-07T07:15:31;96714.16;;;0.95;85.50
57594;BME280;43423;46.510;6.686;2023-12-07T07:17:57;96714.91;;;0.96;83.07
57594;BME280;43423;46.510;6.686;2023-12-07T07:20:23;96706.16;;;0.84;84.28
57594;BME280;43423;46.510;6.686;2023-12-07T07:22:48;96712.22;;;0.96;83.80
57594;BME280;43423;46.510;6.686;2023-12-07T07:25:14;96713.78;;;0.93;84.31
57594;BME280;43423;46.510;6.686;2023-12-07T07:27:41;96717.88;;;1.05;84.03
57594;BME280;43423;46.510;6.686;2023-12-07T07:30:08;96725.00;;;1.46;82.85
57594;BME280;43423;46.510;6.686;2023-12-07T07:32:34;96734.34;;;1.88;81.29
57594;BME280;43423;46.510;6.686;2023-12-07T07:35:00;96727.69;;;1.92;80.76
57594;BME280;43423;46.510;6.686;2023-12-07T07:37:26;96722.44;;;2.25;78.58
57594;BME280;43423;46.510;6.686;2023-12-07T07:39:51;96722.19;;;2.39;76.95
57594;BME280;43423;46.510;6.686;2023-12-07T07:42:17;96714.16;;;2.52;74.40
57594;BME280;43423;46.510;6.686;2023-12-07T07:44:43;96706.34;;;2.74;75.09
57594;BME280;43423;46.510;6.686;2023-12-07T07:47:08;96709.78;;;2.94;75.14
57594;BME280;43423;46.510;6.686;2023-12-07T07:49:34;96709.50;;;3.08;73.44
57594;BME280;43423;46.510;6.686;2023-12-07T07:52:00;96712.50;;;2.94;74.61
57594;BME280;43423;46.510;6.686;2023-12-07T07:54:26;96710.81;;;2.64;74.90
57594;BME280;43423;46.510;6.686;2023-12-07T07:56:51;96704.09;;;2.33;75.93
57594;BME280;43423;46.510;6.686;2023-12-07T07:59:17;96696.44;;;2.28;76.76
57594;BME280;43423;46.510;6.686;2023-12-07T08:01:42;96702.97;;;2.30;77.85
57594;BME280;43423;46.510;6.686;2023-12-07T08:04:09;96690.00;;;2.58;76.33
57594;BME280;43423;46.510;6.686;2023-12-07T08:06:35;96685.34;;;2.58;75.71
57594;BME280;43423;46.510;6.686;2023-12-07T08:09:01;96679.16;;;2.58;76.62
57594;BME280;43423;46.510;6.686;2023-12-07T08:11:26;96674.56;;;2.55;77.41
57594;BME280;43423;46.510;6.686;2023-12-07T08:13:52;96668.19;;;2.25;78.37
57594;BME280;43423;46.510;6.686;2023-12-07T08:16:18;96660.38;;;2.27;79.60
57594;BME280;43423;46.510;6.686;2023-12-07T08:18:44;96662.28;;;2.30;80.06
57594;BME280;43423;46.510;6.686;2023-12-07T08:21:21;96652.59;;;2.09;80.45
57594;BME280;43423;46.510;6.686;2023-12-07T08:23:47;96660.25;;;2.34;80.07
57594;BME280;43423;46.510;6.686;2023-12-07T08:26:14;96659.25;;;2.44;78.96
57594;BME280;43423;46.510;6.686;2023-12-07T08:28:40;96658.56;;;2.40;79.53
57594;BME280;43423;46.510;6.686;2023-12-07T08:31:06;96651.09;;;2.64;80.26
57594;BME280;43423;46.510;6.686;2023-12-07T08:33:32;96635.69;;;2.77;78.00
57594;BME280;43423;46.510;6.686;2023-12-07T08:36:00;96633.19;;;2.67;78.14
57594;BME280;43423;46.510;6.686;2023-12-07T08:38:26;96636.38;;;2.45;78.00
57594;BME280;43423;46.510;6.686;2023-12-07T08:40:52;96638.66;;;2.47;75.09
57594;BME280;43423;46.510;6.686;2023-12-07T08:43:21;96647.88;;;2.33;74.34
57594;BME280;43423;46.510;6.686;2023-12-07T08:45:53;96641.97;;;2.38;73.46
57594;BME280;43423;46.510;6.686;2023-12-07T08:48:19;96639.63;;;2.57;74.41
57594;BME280;43423;46.510;6.686;2023-12-07T08:50:46;96638.25;;;3.01;72.23
57594;BME280;43423;46.510;6.686;2023-12-07T08:53:11;96650.09;;;3.72;68.62
57594;BME280;43423;46.510;6.686;2023-12-07T08:55:38;96654.69;;;4.04;66.68
57594;BME280;43423;46.510;6.686;2023-12-07T08:58:05;96636.22;;;4.25;65.60
57594;BME280;43423;46.510;6.686;2023-12-07T09:00:32;96625.72;;;4.65;63.59
57594;BME280;43423;46.510;6.686;2023-12-07T09:02:58;96608.94;;;5.04;61.79
57594;BME280;43423;46.510;6.686;2023-12-07T09:05:25;96601.00;;;5.45;61.19
57594;BME280;43423;46.510;6.686;2023-12-07T09:07:51;96610.56;;;6.19;59.23
57594;BME280;43423;46.510;6.686;2023-12-07T09:10:18;96610.44;;;6.22;56.63
57594;BME280;43423;46.510;6.686;2023-12-07T09:12:44;96616.66;;;6.85;56.05
57594;BME280;43423;46.510;6.686;2023-12-07T09:15:10;96616.84;;;7.58;55.60
57594;BME280;43423;46.510;6.686;2023-12-07T09:17:37;96628.91;;;7.88;55.74
57594;BME280;43423;46.510;6.686;2023-12-07T09:20:09;96626.78;;;7.92;55.51
57594;BME280;43423;46.510;6.686;2023-12-07T09:22:43;96628.41;;;8.45;54.53
57594;BME280;43423;46.510;6.686;2023-12-07T09:25:09;96617.28;;;8.57;53.85
57594;BME280;43423;46.510;6.686;2023-12-07T09:27:36;96605.72;;;8.53;54.38
57594;BME280;43423;46.510;6.686;2023-12-07T09:30:06;96610.75;;;8.97;53.79
57594;BME280;43423;46.510;6.686;2023-12-07T09:32:32;96614.03;;;9.10;51.60
57594;BME280;43423;46.510;6.686;2023-12-07T09:35:07;96608.88;;;8.61;51.73
57594;BME280;43423;46.510;6.686;2023-12-07T09:37:36;96623.28;;;8.01;52.05
57594;BME280;43423;46.510;6.686;2023-12-07T09:40:02;96631.75;;;6.58;55.54
57594;BME280;43423;46.510;6.686;2023-12-07T09:42:30;96633.94;;;6.20;55.00
57594;BME280;43423;46.510;6.686;2023-12-07T09:44:56;96618.44;;;5.95;56.60
57594;BME280;43423;46.510;6.686;2023-12-07T09:47:21;96616.81;;;5.50;62.05
57594;BME280;43423;46.510;6.686;2023-12-07T09:49:47;96621.56;;;5.24;56.23
57594;BME280;43423;46.510;6.686;2023-12-07T09:52:13;96616.72;;;5.53;56.04
57594;BME280;43423;46.510;6.686;2023-12-07T09:54:42;96624.59;;;5.73;55.86
57594;BME280;43423;46.510;6.686;2023-12-07T09:57:09;96625.00;;;5.50;53.18
57594;BME280;43423;46.510;6.686;2023-12-07T09:59:35;96626.59;;;5.60;52.67
57594;BME280;43423;46.510;6.686;2023-12-07T10:02:02;96622.13;;;6.01;54.09
57594;BME280;43423;46.510;6.686;2023-12-07T10:04:27;96623.38;;;6.31;52.55
57594;BME280;43423;46.510;6.686;2023-12-07T10:06:53;96612.53;;;6.40;53.64
57594;BME280;43423;46.510;6.686;2023-12-07T10:09:19;96613.66;;;6.92;52.25
57594;BME280;43423;46.510;6.686;2023-12-07T10:11:47;96616.84;;;7.40;53.32
57594;BME280;43423;46.510;6.686;2023-12-07T10:14:13;96593.91;;;7.46;51.54
57594;BME280;43423;46.510;6.686;2023-12-07T10:16:52;96592.56;;;7.60;54.74
57594;BME280;43423;46.510;6.686;2023-12-07T10:19:18;96594.38;;;7.72;53.85
57594;BME280;43423;46.510;6.686;2023-12-07T10:21:48;96594.38;;;7.54;55.05
57594;BME280;43423;46.510;6.686;2023-12-07T10:24:15;96597.69;;;7.49;56.05
57594;BME280;43423;46.510;6.686;2023-12-07T10:26:43;96588.97;;;7.05;54.13
57594;BME280;43423;46.510;6.686;2023-12-07T10:29:09;96592.69;;;6.49;52.58
57594;BME280;43423;46.510;6.686;2023-12-07T10:31:36;96596.56;;;7.10;50.32
57594;BME280;43423;46.510;6.686;2023-12-07T10:34:02;96600.28;;;7.52;48.66
57594;BME280;43423;46.510;6.686;2023-12-07T10:36:28;96600.31;;;7.62;47.63
57594;BME280;43423;46.510;6.686;2023-12-07T10:38:54;96597.03;;;7.26;47.96
57594;BME280;43423;46.510;6.686;2023-12-07T10:41:22;96590.69;;;7.30;49.73
57594;BME280;43423;46.510;6.686;2023-12-07T10:44:09;96606.69;;;6.91;49.43
57594;BME280;43423;46.510;6.686;2023-12-07T10:46:39;96594.25;;;6.06;52.11
57594;BME280;43423;46.510;6.686;2023-12-07T10:49:07;96588.84;;;6.15;53.96
57594;BME280;43423;46.510;6.686;2023-12-07T10:51:58;96602.03;;;6.69;53.72
57594;BME280;43423;46.510;6.686;2023-12-07T10:54:34;96599.47;;;6.75;54.13
57594;BME280;43423;46.510;6.686;2023-12-07T10:57:01;96585.31;;;6.67;55.02
57594;BME280;43423;46.510;6.686;2023-12-07T10:59:31;96580.31;;;7.06;56.38
57594;BME280;43423;46.510;6.686;2023-12-07T11:01:57;96597.28;;;6.61;56.22
57594;BME280;43423;46.510;6.686;2023-12-07T11:04:24;96591.13;;;7.19;55.05
57594;BME280;43423;46.510;6.686;2023-12-07T11:06:52;96578.03;;;7.14;54.22
57594;BME280;43423;46.510;6.686;2023-12-07T11:09:25;96578.41;;;7.43;52.30
57594;BME280;43423;46.510;6.686;2023-12-07T11:12:01;96563.91;;;7.15;50.30
57594;BME280;43423;46.510;6.686;2023-12-07T11:14:28;96566.22;;;6.77;52.88
57594;BME280;43423;46.510;6.686;2023-12-07T11:16:56;96574.13;;;7.33;51.51
57594;BME280;43423;46.510;6.686;2023-12-07T11:22:05;96578.94;;;6.70;55.12
57594;BME280;43423;46.510;6.686;2023-12-07T11:24:31;96575.16;;;6.68;54.28
57594;BME280;43423;46.510;6.686;2023-12-07T11:26:57;96577.38;;;6.51;51.75
57594;BME280;43423;46.510;6.686;2023-12-07T11:29:28;96571.34;;;6.56;48.96
57594;BME280;43423;46.510;6.686;2023-12-07T11:32:04;96573.09;;;6.81;47.90
57594;BME280;43423;46.510;6.686;2023-12-07T11:34:42;96574.41;;;7.26;46.54
57594;BME280;43423;46.510;6.686;2023-12-07T11:37:15;96576.84;;;7.33;48.77
57594;BME280;43423;46.510;6.686;2023-12-07T11:39:42;96575.63;;;7.34;50.20
57594;BME280;43423;46.510;6.686;2023-12-07T11:44:38;96561.13;;;8.34;49.61
57594;BME280;43423;46.510;6.686;2023-12-07T11:47:04;96552.53;;;7.99;50.85
57594;BME280;43423;46.510;6.686;2023-12-07T11:49:31;96545.25;;;7.87;51.24
57594;BME280;43423;46.510;6.686;2023-12-07T11:52:00;96539.59;;;8.60;51.89
57594;BME280;43423;46.510;6.686;2023-12-07T11:54:26;96532.78;;;8.89;50.46
57594;BME280;43423;46.510;6.686;2023-12-07T11:56:56;96523.47;;;9.19;49.92
57594;BME280;43423;46.510;6.686;2023-12-07T11:59:24;96526.09;;;9.91;48.50
57594;BME280;43423;46.510;6.686;2023-12-07T12:01:53;96523.25;;;8.75;50.63
57594;BME280;43423;46.510;6.686;2023-12-07T12:04:18;96519.19;;;8.94;49.75
57594;BME280;43423;46.510;6.686;2023-12-07T12:06:44;96510.69;;;8.59;50.26
57594;BME280;43423;46.510;6.686;2023-12-07T12:09:16;96510.44;;;8.81;50.70
57594;BME280;43423;46.510;6.686;2023-12-07T12:11:52;96520.66;;;8.29;51.20
57594;BME280;43423;46.510;6.686;2023-12-07T12:14:17;96515.44;;;7.80;53.22
57594;BME280;43423;46.510;6.686;2023-12-07T12:16:48;96513.63;;;7.86;53.26
57594;BME280;43423;46.510;6.686;2023-12-07T12:19:15;96505.72;;;7.33;54.25
57594;BME280;43423;46.510;6.686;2023-12-07T12:21:41;96510.94;;;7.59;54.41
57594;BME280;43423;46.510;6.686;2023-12-07T12:24:09;96506.06;;;7.53;54.99
57594;BME280;43423;46.510;6.686;2023-12-07T12:26:39;96500.03;;;6.72;54.47
57594;BME280;43423;46.510;6.686;2023-12-07T12:29:06;96507.38;;;6.44;56.16
57594;BME280;43423;46.510;6.686;2023-12-07T12:31:32;96505.22;;;6.39;57.20
57594;BME280;43423;46.510;6.686;2023-12-07T12:34:01;96502.84;;;6.10;58.11
57594;BME280;43423;46.510;6.686;2023-12-07T12:36:27;96498.44;;;6.13;58.21
57594;BME280;43423;46.510;6.686;2023-12-07T12:38:53;96494.13;;;6.25;58.45
57594;BME280;43423;46.510;6.686;2023-12-07T12:41:21;96483.84;;;6.96;56.77
57594;BME280;43423;46.510;6.686;2023-12-07T12:43:46;96469.59;;;7.29;55.81
57594;BME280;43423;46.510;6.686;2023-12-07T12:46:14;96460.44;;;7.69;52.86
57594;BME280;43423;46.510;6.686;2023-12-07T12:49:12;96456.75;;;7.72;52.05
57594;BME280;43423;46.510;6.686;2023-12-07T12:51:38;96460.06;;;7.94;48.30
57594;BME280;43423;46.510;6.686;2023-12-07T12:54:04;96451.91;;;7.76;51.71
57594;BME280;43423;46.510;6.686;2023-12-07T12:56:29;96454.03;;;7.63;50.72
57594;BME280;43423;46.510;6.686;2023-12-07T12:58:55;96459.25;;;7.06;50.50
57594;BME280;43423;46.510;6.686;2023-12-07T13:01:22;96454.97;;;6.86;51.05
57594;BME280;43423;46.510;6.686;2023-12-07T13:03:48;96448.91;;;6.82;50.28
57594;BME280;43423;46.510;6.686;2023-12-07T13:06:14;96439.28;;;6.68;50.33
57594;BME280;43423;46.510;6.686;2023-12-07T13:08:41;96449.53;;;7.05;51.31
57594;BME280;43423;46.510;6.686;2023-12-07T13:11:09;96443.47;;;7.19;51.27
57594;BME280;43423;46.510;6.686;2023-12-07T13:13:35;96444.66;;;7.36;51.29
57594;BME280;43423;46.510;6.686;2023-12-07T13:16:01;96438.56;;;7.41;48.80